Time;durP1;ratioP1;P1;durP2;ratioP2;P2;SDS_P1;SDS_P2;PMS_P1;PMS_P2;Temp;Humidity;BMP_temperature;BMP_pressure;BME280_temperature;BME280_humidity;BME280_pressure;Samples;Min_cycle;Max_cycle;Signal;HPM_P1;HPM_P2
2021/05/26 00:00:21;;;;;;;2.85;1.00;;;12.90;74.30;;;;;;5011363;28;20136;-65
2021/05/26 00:02:48;;;;;;;5.43;1.30;;;12.80;74.90;;;;;;5009706;28;20460;-65
2021/05/26 00:05:16;;;;;;;4.25;1.08;;;12.70;75.10;;;;;;5011636;28;20153;-65
2021/05/26 00:07:43;;;;;;;5.32;0.90;;;12.80;75.30;;;;;;5012483;28;20137;-65
2021/05/26 00:10:10;;;;;;;3.15;0.70;;;12.70;75.70;;;;;;5002394;28;20153;-67
2021/05/26 00:12:37;;;;;;;3.85;1.13;;;12.70;75.90;;;;;;5017522;28;20073;-66
2021/05/26 00:15:06;;;;;;;1.65;0.98;;;12.80;76.40;;;;;;5010398;28;20053;-65
2021/05/26 00:17:34;;;;;;;2.08;0.73;;;12.70;76.50;;;;;;5010138;28;20437;-67
2021/05/26 00:20:01;;;;;;;4.38;1.20;;;12.70;77.10;;;;;;5007521;28;20132;-66
2021/05/26 00:22:28;;;;;;;3.00;1.05;;;12.70;77.50;;;;;;5008483;28;20057;-65
2021/05/26 00:24:55;;;;;;;1.05;0.50;;;12.70;77.70;;;;;;5007423;28;20084;-66
2021/05/26 00:27:22;;;;;;;3.22;0.88;;;12.60;76.80;;;;;;5009499;28;20477;-66
2021/05/26 00:29:49;;;;;;;3.00;1.10;;;12.50;77.70;;;;;;5008966;28;20053;-66
2021/05/26 00:32:16;;;;;;;2.30;1.30;;;12.50;77.90;;;;;;5011333;28;20133;-65
2021/05/26 00:34:43;;;;;;;3.58;0.90;;;12.60;77.30;;;;;;5010110;28;20045;-65
2021/05/26 00:37:10;;;;;;;2.88;1.00;;;12.50;77.90;;;;;;5009436;28;20054;-65
2021/05/26 00:39:37;;;;;;;3.00;1.42;;;12.50;77.90;;;;;;5004426;28;20066;-65
2021/05/26 00:42:04;;;;;;;5.97;2.58;;;12.60;77.90;;;;;;5009204;28;20481;-65
2021/05/26 00:44:31;;;;;;;2.88;1.13;;;12.60;79.20;;;;;;5011024;28;20058;-66
2021/05/26 00:46:58;;;;;;;3.08;1.40;;;12.50;79.10;;;;;;5010772;28;20539;-65
2021/05/26 00:49:25;;;;;;;2.45;1.00;;;12.60;79.40;;;;;;5010707;28;20042;-69
2021/05/26 00:51:52;;;;;;;1.88;1.05;;;12.50;79.50;;;;;;5008023;28;20134;-70
2021/05/26 00:54:18;;;;;;;1.85;0.90;;;12.50;79.20;;;;;;5004877;28;20045;-70
2021/05/26 00:56:49;;;;;;;2.72;1.17;;;12.50;79.50;;;;;;5006058;28;20049;-70
2021/05/26 00:59:16;;;;;;;5.18;1.02;;;12.50;80.00;;;;;;5010554;28;20041;-70
2021/05/26 01:01:43;;;;;;;2.90;1.08;;;12.40;80.30;;;;;;5009023;28;20077;-71
2021/05/26 01:04:10;;;;;;;2.35;0.90;;;12.40;80.40;;;;;;5006274;28;20152;-72
2021/05/26 01:06:36;;;;;;;4.03;1.60;;;12.50;80.10;;;;;;5007268;28;20047;-71
2021/05/26 01:09:03;;;;;;;1.90;1.00;;;12.50;80.30;;;;;;5007449;28;20069;-71
2021/05/26 01:11:30;;;;;;;2.97;1.00;;;12.50;80.70;;;;;;5007721;28;20080;-71
2021/05/26 01:13:57;;;;;;;1.92;0.90;;;12.50;80.40;;;;;;5010793;28;20050;-72
2021/05/26 01:16:24;;;;;;;3.08;1.00;;;12.50;79.80;;;;;;5009884;28;20132;-71
2021/05/26 01:18:55;;;;;;;2.22;1.27;;;12.40;80.50;;;;;;5005044;28;20046;-71
2021/05/26 01:21:22;;;;;;;2.53;0.98;;;12.40;81.70;;;;;;5006242;28;20126;-71
2021/05/26 01:23:48;;;;;;;3.65;1.20;;;12.30;82.30;;;;;;5010843;28;20547;-72
2021/05/26 01:26:15;;;;;;;3.05;1.33;;;12.20;83.70;;;;;;5006322;28;20046;-71
2021/05/26 01:28:42;;;;;;;4.57;1.00;;;12.20;90.80;;;;;;5008588;28;20077;-72
2021/05/26 01:31:09;;;;;;;3.40;1.08;;;12.10;91.20;;;;;;5010597;28;20058;-72
2021/05/26 01:33:35;;;;;;;3.55;1.00;;;11.90;92.50;;;;;;5006951;28;20089;-71
2021/05/26 01:36:02;;;;;;;1.95;1.05;;;11.90;92.90;;;;;;5007220;28;20073;-72
2021/05/26 01:38:29;;;;;;;2.25;1.10;;;11.90;93.60;;;;;;5008391;28;20489;-66
2021/05/26 01:41:01;;;;;;;2.72;1.13;;;12.00;93.90;;;;;;5008920;28;20058;-66
2021/05/26 01:43:30;;;;;;;5.03;1.48;;;12.10;92.70;;;;;;5009962;28;20073;-66
2021/05/26 01:45:56;;;;;;;2.85;1.20;;;12.00;91.80;;;;;;5005777;28;20046;-65
2021/05/26 01:48:27;;;;;;;4.93;1.55;;;12.00;91.90;;;;;;5007588;28;20466;-66
2021/05/26 01:50:53;;;;;;;2.80;1.25;;;12.00;91.70;;;;;;5010721;28;20169;-67
2021/05/26 01:53:20;;;;;;;3.28;1.27;;;12.00;92.60;;;;;;5003899;28;20053;-66
2021/05/26 01:55:47;;;;;;;8.05;1.35;;;12.00;92.80;;;;;;5003361;28;20050;-66
2021/05/26 01:58:14;;;;;;;2.28;1.00;;;12.10;93.30;;;;;;5008118;28;20480;-67
2021/05/26 02:00:43;;;;;;;2.22;1.17;;;12.00;92.80;;;;;;5009237;28;20066;-65
2021/05/26 02:03:10;;;;;;;3.15;1.27;;;11.80;93.20;;;;;;5010220;28;20046;-66
2021/05/26 02:05:38;;;;;;;2.78;1.30;;;11.80;94.60;;;;;;5009307;28;20050;-68
2021/05/26 02:08:05;;;;;;;3.95;1.15;;;12.00;95.40;;;;;;5006507;28;20085;-65
2021/05/26 02:13:18;;;;;;;4.25;1.60;;;11.90;96.60;;;;;;5008861;28;20096;-64
2021/05/26 02:15:45;;;;;;;3.03;1.40;;;12.00;99.90;;;;;;5006030;28;20074;-64
2021/05/26 02:18:11;;;;;;;5.75;1.77;;;11.90;99.90;;;;;;5007443;28;20386;-65
2021/05/26 02:20:38;;;;;;;3.28;1.70;;;11.90;99.90;;;;;;5010486;28;20072;-64
2021/05/26 02:23:05;;;;;;;4.78;1.40;;;11.90;99.90;;;;;;5007983;28;20081;-64
2021/05/26 02:25:32;;;;;;;2.95;1.65;;;11.80;99.90;;;;;;5009949;28;20104;-64
2021/05/26 02:27:58;;;;;;;3.80;1.80;;;11.70;99.90;;;;;;5013528;28;20541;-64
2021/05/26 02:30:25;;;;;;;4.88;1.85;;;11.60;99.90;;;;;;5012640;28;20121;-65
2021/05/26 02:32:52;;;;;;;4.65;1.80;;;11.60;99.90;;;;;;5009585;28;20149;-65
2021/05/26 02:35:19;;;;;;;3.72;1.70;;;11.50;99.90;;;;;;5014160;28;20100;-66
2021/05/26 02:37:46;;;;;;;4.03;1.90;;;11.60;99.90;;;;;;5014145;28;20497;-66
2021/05/26 02:40:13;;;;;;;4.50;1.67;;;11.90;99.90;;;;;;5010313;28;20453;-65
2021/05/26 02:42:40;;;;;;;7.70;1.80;;;11.80;99.90;;;;;;5012697;28;20046;-66
2021/05/26 02:45:07;;;;;;;4.35;1.58;;;11.70;99.90;;;;;;5010971;28;20515;-65
2021/05/26 02:47:34;;;;;;;2.97;1.85;;;11.70;99.90;;;;;;5011523;28;20080;-66
2021/05/26 02:50:01;;;;;;;4.85;1.90;;;11.80;99.90;;;;;;5009521;28;20077;-63
2021/05/26 02:52:27;;;;;;;5.35;1.67;;;11.70;99.90;;;;;;5013251;28;20085;-66
2021/05/26 02:54:54;;;;;;;5.53;1.60;;;11.80;99.90;;;;;;5012037;28;20137;-66
2021/05/26 02:57:21;;;;;;;4.68;1.73;;;11.70;99.90;;;;;;5006472;28;20120;-65
2021/05/26 02:59:48;;;;;;;4.50;2.05;;;11.70;99.90;;;;;;5011422;28;20042;-65
2021/05/26 03:02:16;;;;;;;3.97;1.75;;;11.80;99.90;;;;;;5006113;28;20477;-67
2021/05/26 03:04:42;;;;;;;4.65;1.95;;;11.80;99.90;;;;;;5003732;28;20534;-64
2021/05/26 03:07:09;;;;;;;4.80;1.73;;;11.80;99.90;;;;;;5016619;28;20469;-65
2021/05/26 03:09:39;;;;;;;6.80;1.63;;;11.80;99.90;;;;;;5012679;28;20303;-65
2021/05/26 03:12:06;;;;;;;5.60;1.73;;;11.80;99.90;;;;;;5012335;28;20072;-64
2021/05/26 03:14:34;;;;;;;2.08;1.45;;;11.80;99.90;;;;;;5011524;28;20046;-65
2021/05/26 03:17:01;;;;;;;3.85;1.65;;;11.90;99.90;;;;;;5009747;28;20050;-65
2021/05/26 03:19:27;;;;;;;2.42;1.50;;;11.90;99.90;;;;;;5010299;28;20058;-64
2021/05/26 03:21:54;;;;;;;4.60;1.80;;;12.00;99.90;;;;;;5009515;28;21535;-65
2021/05/26 03:24:21;;;;;;;10.48;1.50;;;12.00;99.90;;;;;;5008753;28;20104;-64
2021/05/26 03:26:48;;;;;;;4.63;1.40;;;12.00;99.90;;;;;;5007468;28;20104;-63
2021/05/26 03:29:15;;;;;;;7.13;1.35;;;12.00;99.90;;;;;;5009472;28;20137;-65
2021/05/26 03:31:42;;;;;;;3.72;1.40;;;11.90;99.90;;;;;;5010295;28;21116;-65
2021/05/26 03:34:09;;;;;;;4.50;1.55;;;11.70;99.80;;;;;;5009446;28;20050;-65
2021/05/26 03:36:40;;;;;;;7.38;1.80;;;11.80;99.90;;;;;;5007366;28;20501;-65
2021/05/26 03:39:08;;;;;;;6.38;2.05;;;11.80;99.90;;;;;;5010719;28;20540;-64
2021/05/26 03:41:35;;;;;;;2.78;1.80;;;11.90;99.90;;;;;;5011948;28;20080;-64
2021/05/26 03:44:02;;;;;;;5.55;2.15;;;11.90;99.90;;;;;;5010992;28;20133;-64
2021/05/26 03:46:29;;;;;;;5.38;2.13;;;11.90;99.70;;;;;;5011558;28;20077;-64
2021/05/26 03:48:56;;;;;;;5.68;1.60;;;11.80;99.70;;;;;;5009867;28;20037;-64
2021/05/26 03:51:23;;;;;;;6.90;1.95;;;11.80;98.60;;;;;;5013064;28;20038;-65
2021/05/26 03:53:49;;;;;;;5.63;1.40;;;12.00;97.00;;;;;;5010564;28;20088;-64
2021/05/26 03:56:17;;;;;;;4.05;1.23;;;12.00;96.10;;;;;;5010685;28;20069;-65
2021/05/26 03:58:43;;;;;;;4.40;1.67;;;12.00;95.50;;;;;;5012015;28;20077;-65
2021/05/26 04:01:10;;;;;;;3.95;1.40;;;12.00;95.40;;;;;;5012191;28;20461;-67
2021/05/26 04:03:37;;;;;;;3.28;1.13;;;12.00;95.70;;;;;;5009909;28;20128;-66
2021/05/26 04:06:04;;;;;;;3.53;1.30;;;12.00;95.60;;;;;;5008158;28;20465;-67
2021/05/26 04:08:32;;;;;;;4.30;1.17;;;12.00;97.00;;;;;;5007527;28;20463;-64
2021/05/26 04:10:58;;;;;;;2.95;1.30;;;11.90;98.40;;;;;;5003396;28;20081;-72
2021/05/26 04:13:25;;;;;;;4.38;1.30;;;11.70;97.90;;;;;;5012274;28;20085;-71
2021/05/26 04:15:52;;;;;;;3.20;1.02;;;11.70;98.60;;;;;;5008821;28;20050;-72
2021/05/26 04:18:19;;;;;;;3.97;1.23;;;11.70;98.80;;;;;;5007119;28;20042;-71
2021/05/26 04:20:45;;;;;;;3.30;1.27;;;11.70;98.20;;;;;;5008492;28;20537;-71
2021/05/26 04:23:13;;;;;;;4.82;1.40;;;11.60;98.40;;;;;;5008526;28;20489;-71
2021/05/26 04:25:39;;;;;;;3.45;1.23;;;11.70;98.30;;;;;;5011866;28;20112;-64
2021/05/26 04:28:08;;;;;;;2.33;1.17;;;11.70;98.00;;;;;;5012159;28;20125;-66
2021/05/26 04:30:35;;;;;;;4.30;1.40;;;11.70;98.80;;;;;;5009264;28;20077;-64
2021/05/26 04:33:05;;;;;;;3.30;1.27;;;11.50;99.50;;;;;;5010426;28;20460;-64
2021/05/26 04:35:32;;;;;;;5.97;1.17;;;11.50;99.90;;;;;;5011957;28;20532;-65
2021/05/26 04:37:59;;;;;;;2.80;1.27;;;11.60;99.90;;;;;;5006522;28;20041;-64
2021/05/26 04:40:26;;;;;;;5.60;1.40;;;11.60;99.90;;;;;;5011181;28;20104;-64
2021/05/26 04:42:53;;;;;;;4.15;0.95;;;11.70;99.90;;;;;;5009918;28;20045;-64
2021/05/26 04:45:20;;;;;;;3.25;1.45;;;11.60;99.90;;;;;;5005696;28;20314;-65
2021/05/26 04:47:47;;;;;;;4.80;1.23;;;11.50;99.90;;;;;;5000087;28;20054;-64
2021/05/26 04:50:14;;;;;;;3.25;1.23;;;11.60;99.90;;;;;;5010060;28;20547;-65
2021/05/26 04:52:41;;;;;;;6.68;1.30;;;11.70;99.90;;;;;;5009530;28;20055;-64
2021/05/26 04:55:08;;;;;;;3.65;1.30;;;11.70;99.90;;;;;;5010013;28;20045;-64
2021/05/26 04:57:35;;;;;;;3.60;1.23;;;11.80;99.90;;;;;;5010736;28;20046;-65
2021/05/26 05:00:05;;;;;;;3.38;1.10;;;11.80;99.90;;;;;;5011385;28;20085;-65
2021/05/26 05:02:31;;;;;;;7.57;1.30;;;11.90;99.90;;;;;;5006902;28;20128;-65
2021/05/26 05:04:59;;;;;;;5.32;1.40;;;12.00;99.90;;;;;;5004815;28;20395;-65
2021/05/26 05:07:26;;;;;;;3.25;1.25;;;12.00;99.90;;;;;;5010456;28;20501;-65
2021/05/26 05:09:52;;;;;;;3.42;1.00;;;11.90;99.90;;;;;;5009793;28;20476;-65
2021/05/26 05:12:19;;;;;;;4.45;1.17;;;12.00;99.90;;;;;;5009583;28;20125;-66
2021/05/26 05:14:47;;;;;;;6.22;1.50;;;12.10;99.90;;;;;;5025821;28;20433;-65
2021/05/26 05:17:13;;;;;;;4.47;1.40;;;12.10;99.90;;;;;;5011260;28;20092;-65
2021/05/26 05:19:40;;;;;;;6.03;1.63;;;12.20;99.90;;;;;;5008485;28;20393;-67
2021/05/26 05:22:07;;;;;;;4.65;1.20;;;12.10;99.90;;;;;;5004885;28;20457;-65
2021/05/26 05:24:34;;;;;;;5.93;1.35;;;12.10;99.90;;;;;;5008837;28;20077;-71
2021/05/26 05:27:00;;;;;;;5.25;1.55;;;12.00;99.90;;;;;;5007392;28;20069;-71
2021/05/26 05:29:27;;;;;;;3.08;1.58;;;12.00;99.90;;;;;;5009789;28;20148;-72
2021/05/26 05:31:54;;;;;;;2.42;1.10;;;12.10;99.90;;;;;;5008080;28;20128;-72
2021/05/26 05:34:21;;;;;;;6.88;1.40;;;12.10;99.90;;;;;;5007309;28;20049;-72
2021/05/26 05:36:47;;;;;;;5.38;1.33;;;12.10;99.90;;;;;;5010741;28;20133;-72
2021/05/26 05:39:15;;;;;;;6.10;1.33;;;11.90;99.90;;;;;;5009161;28;20484;-72
2021/05/26 05:41:44;;;;;;;6.78;1.92;;;12.00;99.90;;;;;;5002312;28;20089;-72
2021/05/26 05:44:11;;;;;;;3.90;1.40;;;12.00;99.90;;;;;;5009803;28;20050;-72
2021/05/26 05:46:38;;;;;;;1.83;1.00;;;12.00;99.90;;;;;;5009919;28;20137;-72
2021/05/26 05:49:05;;;;;;;5.18;1.42;;;11.90;99.90;;;;;;5009376;28;20042;-72
2021/05/26 05:51:32;;;;;;;4.25;1.30;;;11.90;99.90;;;;;;5009004;28;20532;-72
2021/05/26 05:53:59;;;;;;;5.80;1.27;;;11.90;99.90;;;;;;5003919;28;20526;-65
2021/05/26 05:56:26;;;;;;;6.00;1.50;;;11.80;99.90;;;;;;5010145;28;20524;-66
2021/05/26 05:58:53;;;;;;;3.92;1.17;;;11.90;99.90;;;;;;5006716;28;20100;-66
2021/05/26 06:01:19;;;;;;;1.95;1.17;;;12.00;99.90;;;;;;5009946;28;20042;-67
2021/05/26 06:03:46;;;;;;;3.95;1.55;;;12.00;99.90;;;;;;5010228;28;20074;-65
2021/05/26 06:06:13;;;;;;;3.85;1.50;;;12.10;99.90;;;;;;5012283;28;20093;-65
2021/05/26 06:08:40;;;;;;;5.40;1.80;;;12.20;99.90;;;;;;5009860;28;20192;-65
2021/05/26 06:11:09;;;;;;;6.47;1.90;;;12.00;99.90;;;;;;5011731;28;20105;-67
2021/05/26 06:13:46;;;;;;;6.05;1.63;;;11.90;99.90;;;;;;5010955;28;20045;-64
2021/05/26 06:16:12;;;;;;;4.53;1.42;;;11.80;99.90;;;;;;5015273;28;20547;-66
2021/05/26 06:18:39;;;;;;;3.05;1.38;;;11.90;99.90;;;;;;5011475;28;20085;-64
2021/05/26 06:21:06;;;;;;;3.58;1.40;;;12.00;99.90;;;;;;5011376;28;20081;-67
2021/05/26 06:23:34;;;;;;;4.57;1.45;;;12.00;99.90;;;;;;5007385;28;20473;-65
2021/05/26 06:26:02;;;;;;;3.58;1.30;;;11.90;99.90;;;;;;5010088;28;20096;-65
2021/05/26 06:28:29;;;;;;;2.95;1.52;;;12.00;99.90;;;;;;5012881;28;20058;-64
2021/05/26 06:30:57;;;;;;;4.47;1.25;;;12.10;99.90;;;;;;5010168;28;20054;-72
2021/05/26 06:33:24;;;;;;;4.60;1.60;;;12.10;99.90;;;;;;5009460;28;20049;-72
2021/05/26 06:35:51;;;;;;;2.05;1.10;;;11.90;99.90;;;;;;5013911;28;20112;-71
2021/05/26 06:38:18;;;;;;;4.95;1.38;;;12.00;99.90;;;;;;5009838;28;20525;-71
2021/05/26 06:40:45;;;;;;;4.93;1.23;;;11.90;99.90;;;;;;5013097;28;20541;-70
2021/05/26 06:43:11;;;;;;;3.30;1.40;;;12.00;99.90;;;;;;5013679;28;20089;-72
2021/05/26 06:45:38;;;;;;;3.05;1.33;;;11.90;99.90;;;;;;5011426;28;20430;-71
2021/05/26 06:48:06;;;;;;;5.13;1.23;;;12.00;99.90;;;;;;5007084;28;20425;-71
2021/05/26 06:50:32;;;;;;;5.18;1.30;;;12.10;99.90;;;;;;5014348;28;20485;-72
2021/05/26 06:52:59;;;;;;;5.13;1.38;;;12.20;99.90;;;;;;5011547;28;20081;-72
2021/05/26 06:55:26;;;;;;;2.75;0.95;;;12.10;99.90;;;;;;5009621;28;20070;-71
2021/05/26 06:57:53;;;;;;;4.45;1.30;;;12.00;99.90;;;;;;5013777;28;20156;-72
2021/05/26 07:00:20;;;;;;;4.72;1.42;;;11.90;99.90;;;;;;5010714;28;20410;-71
2021/05/26 07:02:47;;;;;;;2.28;1.10;;;12.00;99.90;;;;;;5010049;28;20053;-65
2021/05/26 07:05:14;;;;;;;3.25;1.17;;;12.00;99.90;;;;;;5009640;28;20062;-64
2021/05/26 07:07:41;;;;;;;2.50;1.08;;;11.90;99.90;;;;;;5009152;28;20472;-64
2021/05/26 07:10:08;;;;;;;4.95;1.20;;;12.00;99.90;;;;;;5008929;28;20141;-65
2021/05/26 07:12:35;;;;;;;3.00;1.40;;;11.90;99.90;;;;;;5013267;28;20089;-65
2021/05/26 07:15:03;;;;;;;5.28;1.33;;;12.10;99.90;;;;;;5010452;28;20096;-65
2021/05/26 07:17:31;;;;;;;4.80;1.50;;;12.10;99.90;;;;;;5012366;28;20042;-65
2021/05/26 07:19:57;;;;;;;6.45;1.70;;;12.00;99.90;;;;;;5011117;28;20112;-64
2021/05/26 07:22:24;;;;;;;5.00;1.30;;;12.00;99.90;;;;;;5012207;28;20528;-65
2021/05/26 07:24:51;;;;;;;2.45;1.10;;;12.00;99.90;;;;;;5011063;28;20413;-65
2021/05/26 07:27:18;;;;;;;4.05;1.45;;;12.00;99.90;;;;;;5008121;28;20122;-67
2021/05/26 07:29:45;;;;;;;5.35;1.08;;;12.00;99.90;;;;;;5010314;28;20397;-71
2021/05/26 07:32:12;;;;;;;6.53;1.63;;;12.00;99.90;;;;;;5009998;28;20149;-71
2021/05/26 07:34:38;;;;;;;5.97;1.50;;;12.10;99.90;;;;;;5007350;28;20046;-72
2021/05/26 07:37:05;;;;;;;4.82;1.40;;;12.00;99.90;;;;;;5013018;28;20092;-72
2021/05/26 07:39:35;;;;;;;4.07;1.48;;;12.00;99.90;;;;;;5010750;28;20100;-71
2021/05/26 07:42:07;;;;;;;2.83;1.30;;;11.90;99.90;;;;;;5006712;28;20049;-71
2021/05/26 07:44:35;;;;;;;4.63;1.60;;;11.90;99.90;;;;;;5012067;28;20077;-71
2021/05/26 07:47:02;;;;;;;4.25;1.30;;;12.10;99.90;;;;;;5009960;28;20064;-72
2021/05/26 07:49:28;;;;;;;4.32;1.42;;;12.10;99.90;;;;;;5010698;28;20054;-71
2021/05/26 07:52:02;;;;;;;6.10;1.48;;;12.20;99.90;;;;;;5013122;28;20394;-73
2021/05/26 07:54:29;;;;;;;6.57;1.48;;;11.90;99.90;;;;;;5009736;28;20053;-73
2021/05/26 07:56:58;;;;;;;5.22;1.50;;;11.70;99.90;;;;;;5011557;28;20061;-72
2021/05/26 07:59:26;;;;;;;2.70;1.60;;;11.80;99.90;;;;;;5011693;28;20042;-72
2021/05/26 08:01:53;;;;;;;3.30;1.30;;;12.00;99.90;;;;;;5004437;28;20125;-71
2021/05/26 08:04:20;;;;;;;3.97;1.20;;;11.80;99.90;;;;;;5005829;28;20187;-73
2021/05/26 08:06:47;;;;;;;3.40;1.20;;;12.00;99.90;;;;;;5008904;28;20053;-74
2021/05/26 08:09:14;;;;;;;5.35;1.30;;;12.30;99.90;;;;;;5006197;28;20072;-74
2021/05/26 08:11:41;;;;;;;3.80;1.40;;;12.40;99.90;;;;;;5010145;28;20103;-73
2021/05/26 08:14:08;;;;;;;6.30;1.27;;;12.40;99.90;;;;;;5010704;28;20473;-70
2021/05/26 08:16:35;;;;;;;4.07;1.25;;;12.20;99.90;;;;;;5007232;28;20077;-71
2021/05/26 08:19:03;;;;;;;2.80;1.38;;;12.20;99.90;;;;;;5012915;28;20082;-73
2021/05/26 08:21:29;;;;;;;3.70;1.48;;;12.60;99.90;;;;;;5008724;28;20096;-72
2021/05/26 08:23:56;;;;;;;3.05;1.55;;;12.70;99.90;;;;;;5007789;28;20481;-72
2021/05/26 08:26:23;;;;;;;3.00;1.17;;;12.60;99.90;;;;;;5006851;28;20398;-72
2021/05/26 08:28:52;;;;;;;5.60;1.65;;;12.50;99.90;;;;;;5007993;28;20061;-74
2021/05/26 08:31:20;;;;;;;5.32;1.42;;;12.50;99.90;;;;;;5004518;28;20050;-72
2021/05/26 08:33:48;;;;;;;4.00;1.65;;;12.40;99.90;;;;;;5008504;28;20100;-73
2021/05/26 08:36:15;;;;;;;4.38;1.27;;;12.60;99.90;;;;;;5011392;28;20057;-74
2021/05/26 08:38:43;;;;;;;3.67;1.42;;;12.40;99.90;;;;;;5002809;28;20142;-73
2021/05/26 08:41:11;;;;;;;6.68;1.45;;;12.50;99.90;;;;;;5007630;28;20416;-73
2021/05/26 08:43:40;;;;;;;6.65;1.48;;;12.60;99.90;;;;;;5009401;28;20073;-71
2021/05/26 08:46:08;;;;;;;4.75;1.25;;;12.30;99.90;;;;;;5010675;28;20046;-73
2021/05/26 08:48:35;;;;;;;4.30;1.48;;;12.40;99.90;;;;;;5005530;28;20080;-73
2021/05/26 08:51:06;;;;;;;3.17;1.40;;;12.30;99.90;;;;;;5007753;28;20378;-75
2021/05/26 08:53:36;;;;;;;;;;;12.20;99.90;;;;;;5008156;28;20465;-73
2021/05/26 08:56:04;;;;;;;9.00;1.65;;;12.30;99.90;;;;;;5009763;28;20364;-73
2021/05/26 08:58:37;;;;;;;6.80;1.50;;;12.20;99.90;;;;;;5006625;28;20473;-71
2021/05/26 09:01:05;;;;;;;6.65;1.30;;;12.20;99.90;;;;;;5004801;28;20057;-70
2021/05/26 09:03:32;;;;;;;5.93;1.58;;;12.10;99.90;;;;;;5007297;28;20142;-70
2021/05/26 09:05:59;;;;;;;4.32;1.88;;;12.30;99.90;;;;;;5011612;28;20444;-72
2021/05/26 09:08:26;;;;;;;3.58;1.17;;;12.30;99.90;;;;;;5008176;28;20078;-71
2021/05/26 09:11:01;;;;;;;6.35;1.73;;;12.40;99.90;;;;;;5010169;28;20685;-72
2021/05/26 09:13:43;;;;;;;4.13;1.30;;;12.50;99.90;;;;;;5008577;28;20045;-71
2021/05/26 09:16:28;;;;;;;6.05;1.30;;;12.60;99.90;;;;;;5007883;28;20382;-72
2021/05/26 09:18:57;;;;;;;3.65;1.00;;;12.70;99.90;;;;;;5005506;28;20101;-73
2021/05/26 09:21:46;;;;;;;4.30;1.58;;;12.70;99.90;;;;;;5009816;28;20141;-72
2021/05/26 09:24:19;;;;;;;3.05;1.35;;;12.60;99.90;;;;;;5007020;28;20083;-71
2021/05/26 09:26:52;;;;;;;5.45;1.30;;;12.80;99.90;;;;;;5007458;28;20049;-72
2021/05/26 09:29:29;;;;;;;4.35;1.30;;;12.70;99.90;;;;;;5009185;28;20053;-72
2021/05/26 09:32:23;;;;;;;4.22;1.30;;;12.60;99.90;;;;;;5018767;28;20050;-72
2021/05/26 09:34:50;;;;;;;4.05;1.38;;;12.70;99.90;;;;;;5009454;28;20084;-72
2021/05/26 09:37:23;;;;;;;3.45;1.10;;;12.80;99.90;;;;;;5008387;28;20440;-72
2021/05/26 09:40:07;;;;;;;2.38;1.10;;;12.80;99.90;;;;;;5008865;28;20054;-73
2021/05/26 09:42:41;;;;;;;2.60;1.08;;;12.90;99.90;;;;;;5010382;28;20046;-70
2021/05/26 09:45:27;;;;;;;3.00;1.30;;;12.80;99.90;;;;;;5002119;28;20053;-73
2021/05/26 09:48:14;;;;;;;7.32;1.23;;;12.80;99.90;;;;;;5000045;28;20499;-70
2021/05/26 09:50:41;;;;;;;2.50;1.00;;;12.80;99.90;;;;;;5004959;28;20073;-72
2021/05/26 09:53:10;;;;;;;3.88;1.00;;;12.90;99.90;;;;;;5006239;28;20675;-72
2021/05/26 09:55:42;;;;;;;4.15;1.30;;;12.90;99.90;;;;;;5002686;28;20069;-72
2021/05/26 09:58:11;;;;;;;4.57;1.30;;;13.10;99.90;;;;;;5009840;28;20522;-73
2021/05/26 10:00:41;;;;;;;2.70;0.95;;;13.10;99.90;;;;;;5004523;28;20128;-72
2021/05/26 10:03:08;;;;;;;4.18;1.10;;;12.90;99.90;;;;;;5003864;28;20094;-72
2021/05/26 10:05:35;;;;;;;2.33;0.95;;;12.90;99.90;;;;;;5007466;28;20081;-72
2021/05/26 10:08:07;;;;;;;3.05;1.05;;;12.80;99.90;;;;;;5002408;28;20049;-73
2021/05/26 10:10:34;;;;;;;4.80;1.00;;;12.70;99.90;;;;;;5008520;28;20129;-72
2021/05/26 10:13:03;;;;;;;2.15;0.90;;;12.70;99.90;;;;;;5008948;28;20101;-73
2021/05/26 10:15:34;;;;;;;5.30;1.20;;;12.90;99.90;;;;;;5005172;28;20140;-74
2021/05/26 10:18:01;;;;;;;3.67;1.00;;;12.90;99.90;;;;;;5008635;28;20050;-73
2021/05/26 10:20:33;;;;;;;2.13;1.02;;;13.00;99.90;;;;;;5006644;28;20124;-73
2021/05/26 10:23:02;;;;;;;4.25;1.23;;;13.20;99.90;;;;;;5007445;28;20089;-73
2021/05/26 10:25:30;;;;;;;1.63;0.90;;;13.30;99.90;;;;;;5004653;28;20076;-73
2021/05/26 10:27:58;;;;;;;2.05;1.10;;;13.10;99.90;;;;;;5010396;28;20080;-73
2021/05/26 10:30:28;;;;;;;4.10;1.20;;;13.10;99.90;;;;;;5006187;28;20050;-72
2021/05/26 10:33:01;;;;;;;6.70;1.13;;;13.30;99.90;;;;;;5008872;28;20074;-72
2021/05/26 10:35:49;;;;;;;4.00;1.13;;;12.90;99.90;;;;;;5005612;28;20088;-71
2021/05/26 10:38:16;;;;;;;2.70;0.93;;;12.60;99.90;;;;;;5005258;28;20076;-76
2021/05/26 10:40:54;;;;;;;1.73;0.90;;;12.40;99.90;;;;;;5004542;28;20477;-74
2021/05/26 10:43:21;;;;;;;4.80;1.00;;;12.40;99.90;;;;;;5006709;28;20469;-72
2021/05/26 10:45:50;;;;;;;7.40;1.40;;;12.60;99.90;;;;;;5005727;28;20492;-74
2021/05/26 10:48:52;;;;;;;3.95;1.20;;;12.40;99.90;;;;;;5008546;28;20088;-76
2021/05/26 10:51:19;;;;;;;2.20;1.08;;;12.50;99.90;;;;;;5011759;28;20097;-73
2021/05/26 10:53:46;;;;;;;2.10;1.10;;;12.80;99.90;;;;;;5006507;28;20130;-66
2021/05/26 10:56:36;;;;;;;3.92;1.30;;;12.70;99.90;;;;;;5013680;28;20081;-68
2021/05/26 10:59:15;;;;;;;2.67;1.08;;;12.60;99.90;;;;;;5009660;28;20509;-67
2021/05/26 11:02:10;;;;;;;3.53;1.23;;;12.60;99.90;;;;;;5011442;28;20469;-67
2021/05/26 11:04:38;;;;;;;3.90;1.10;;;12.60;99.90;;;;;;5007861;28;20139;-68
2021/05/26 11:07:32;;;;;;;2.92;1.05;;;12.50;99.90;;;;;;5013413;28;20492;-67
2021/05/26 11:10:01;;;;;;;2.40;1.17;;;12.60;99.90;;;;;;5008791;28;20058;-67
2021/05/26 11:12:49;;;;;;;1.35;0.90;;;12.20;99.90;;;;;;5007243;28;20050;-67
2021/05/26 11:15:41;;;;;;;2.63;1.10;;;12.30;99.90;;;;;;5011751;28;20046;-66
2021/05/26 11:18:16;;;;;;;2.00;0.90;;;12.60;99.90;;;;;;5010506;28;20069;-78
2021/05/26 11:20:43;;;;;;;1.45;0.95;;;12.80;99.90;;;;;;5011044;28;20476;-72
2021/05/26 11:23:11;;;;;;;2.47;1.17;;;12.50;99.90;;;;;;5008906;28;20050;-70
2021/05/26 11:25:56;;;;;;;2.92;1.15;;;12.30;99.90;;;;;;5010744;28;20083;-70
2021/05/26 11:28:30;;;;;;;2.80;1.20;;;12.40;99.90;;;;;;5008334;28;20065;-71
2021/05/26 11:31:06;;;;;;;2.88;1.15;;;12.60;99.90;;;;;;5011201;28;20149;-71
2021/05/26 11:33:34;;;;;;;3.83;1.10;;;12.60;99.90;;;;;;5006834;28;20085;-70
2021/05/26 11:36:05;;;;;;;3.67;1.83;;;12.70;99.90;;;;;;4995626;28;20100;-71
2021/05/26 11:38:34;;;;;;;2.17;1.08;;;12.60;99.90;;;;;;5023063;28;20045;-68
2021/05/26 11:41:18;;;;;;;3.28;1.00;;;12.70;99.90;;;;;;5009843;28;20053;-69
2021/05/26 11:43:45;;;;;;;5.35;1.17;;;12.80;99.90;;;;;;5027437;28;20078;-67
2021/05/26 11:46:12;;;;;;;3.22;1.35;;;13.00;99.90;;;;;;5007730;28;20077;-74
2021/05/26 11:48:45;;;;;;;2.40;1.40;;;13.10;99.90;;;;;;5008390;28;20409;-73
2021/05/26 11:51:25;;;;;;;3.20;1.35;;;13.00;99.90;;;;;;5011651;28;20046;-72
2021/05/26 11:53:56;;;;;;;5.80;1.83;;;13.10;99.90;;;;;;5010592;28;20061;-75
2021/05/26 11:56:24;;;;;;;5.10;2.30;;;13.00;99.90;;;;;;5008935;28;20054;-71
2021/05/26 11:58:50;;;;;;;19.17;7.78;;;12.90;99.90;;;;;;5011504;28;20045;-72
2021/05/26 12:01:17;;;;;;;13.18;6.72;;;12.90;99.90;;;;;;5005538;28;20050;-73
2021/05/26 12:03:45;;;;;;;5.45;1.77;;;13.20;99.90;;;;;;5008658;28;20101;-74
2021/05/26 12:06:12;;;;;;;6.85;1.67;;;13.30;99.90;;;;;;5011523;28;20061;-75
2021/05/26 12:08:41;;;;;;;4.15;1.48;;;13.20;99.90;;;;;;5001375;28;20050;-77
2021/05/26 12:11:14;;;;;;;6.10;2.05;;;13.20;99.90;;;;;;5000865;28;20050;-74
2021/05/26 12:13:43;;;;;;;2.35;1.20;;;13.20;99.90;;;;;;5001835;28;20125;-73
2021/05/26 12:16:21;;;;;;;2.80;1.35;;;13.20;99.90;;;;;;5002094;28;20062;-72
2021/05/26 12:18:49;;;;;;;13.82;2.47;;;13.20;99.90;;;;;;5006310;28;20145;-75
2021/05/26 12:21:17;;;;;;;2.00;1.20;;;13.10;99.90;;;;;;5003416;28;20060;-73
2021/05/26 12:23:45;;;;;;;3.65;1.13;;;13.00;99.90;;;;;;5002124;28;20163;-73
2021/05/26 12:26:23;;;;;;;3.10;1.60;;;13.10;99.90;;;;;;4999662;28;20048;-73
2021/05/26 12:28:51;;;;;;;7.43;1.45;;;13.20;99.90;;;;;;5003873;28;20079;-73
2021/05/26 12:31:19;;;;;;;4.25;2.20;;;13.20;99.90;;;;;;5004934;28;20412;-74
2021/05/26 12:33:53;;;;;;;1.40;1.08;;;13.00;99.90;;;;;;5000126;28;20054;-77
2021/05/26 12:36:23;;;;;;;3.33;1.20;;;13.30;99.90;;;;;;5003127;28;20132;-74
2021/05/26 12:39:02;;;;;;;5.03;1.50;;;13.50;99.90;;;;;;5002674;28;20045;-76
2021/05/26 12:41:33;;;;;;;9.38;3.58;;;13.50;99.90;;;;;;5000382;28;20090;-74
2021/05/26 12:44:22;;;;;;;2.78;1.55;;;13.70;99.90;;;;;;5002822;28;20049;-72
2021/05/26 12:46:52;;;;;;;4.47;1.95;;;13.50;99.90;;;;;;5001613;28;20056;-74
2021/05/26 12:49:33;;;;;;;5.88;2.15;;;13.40;99.90;;;;;;5002336;28;20404;-75
2021/05/26 12:52:01;;;;;;;4.60;2.58;;;13.30;99.90;;;;;;5005065;28;20489;-76
2021/05/26 12:54:38;;;;;;;4.95;1.50;;;13.30;99.90;;;;;;5001156;28;20073;-76
2021/05/26 12:57:14;;;;;;;3.35;1.80;;;13.40;99.90;;;;;;5004282;28;20159;-74
2021/05/26 13:00:10;;;;;;;3.33;1.88;;;13.50;99.90;;;;;;5002675;28;20064;-74